Joplin, MO (64804)

1:15 PM CST on February 21, 2018 (GMT -0600)
Ohio Ave | | Change Station
Active Advisory: Winter Weather Advisory

Elev 1020 ft 37.07 °N, 94.50 °W | Updated 35 seconds ago

Overcast
Overcast
27.1 °F
Feels Like 19 °F
N
8.0
Wind Variable Wind from ENE

Today
High -- | Low -- °F
--% Chance of Precip.
Yesterday
High -- | Low -- °F
Precip. -- in
Pressure 30.46 in
Visibility 10.0 miles
Clouds Overcast 1200 ft
Windchill 19 °F
Dew Point 24 °F
Humidity 88%
Rainfall 0.00 in
Snow Depth Not available.
6:59 AM 6:04 PM
Waxing Crescent, 33% visible
METAR KJLN 211853Z 06010G17KT 10SM OVC012 M03/M04 A3042 RMK AO2 SLP313 T10281044
Pressure 30.46 in
Visibility 10.0 miles
Clouds Overcast 1200 ft
Windchill 19 °F
Dew Point 24 °F
Humidity 88%
Rainfall 0.00 in
Snow Depth Not available.
6:59 AM 6:04 PM
Waxing Crescent, 33% visible
METAR KJLN 211853Z 06010G17KT 10SM OVC012 M03/M04 A3042 RMK AO2 SLP313 T10281044

Get Your Daily Forecast Email!

Thanks for signing up!

Be on the lookout for a verification email in your inbox.

You'll start receiving severe weather alerts in your inbox..

×

10-Day Weather Forecast

Almanac

Astronomy

Feb. 21, 2018 Rise Set
Actual Time
Civil Twilight
Nautical Twilight
Astronomical Twilight
Moon
Length of Visible Light
Length of Day
Tomorrow will be .
, % of the Moon is Illuminated

Today's Extremes

State Highs State Lows

Community

WunderPhotos

Category 6

Welcome to Category 6. This is the collective home for Weather Underground's featured writeups by Dr. Jeff Masters (right), Bob Henson (left), Chris Burt, and other regular contributors.

Nearby

Air Quality

  Air Quality AQ Index Pollutant
Not available.

Snow Depth

Station Depth Elevation

Earthquake Activity

City Distance Mag. Time & Date
Minimum magnitude displayed is 2.5.

Coastal Water Temperatures

Place Temperature

Stations

Nearby Weather Stations

Station Location Temp. Windchill Dew Point Humidity Wind Precip. Elev Updated Type
                   

Watches & Warnings

Winter Weather Advisory
Issued: 11:10 AM CST Feb. 21, 2018 – National Weather Service

... Winter Weather Advisory remains in effect from 3 PM this
afternoon to 10 am CST Thursday...

* what... freezing rain expected. Total ice accumulations of one
tenth to two tenths of an inch are expected.

* Where... portions of southeast Kansas and central, east central,
   southwest and west central Missouri.

* When... from 3 PM this afternoon to 10 am CST Thursday.

* Additional details... the ice will result in difficult travel
conditions, including during the morning commute on Thursday.

Precautionary/preparedness actions...

A Winter Weather Advisory means that periods of freezing rain
will cause travel difficulties. Be prepared for slippery roads.
Slow down and use caution while driving. The latest Road
conditions for the state you are calling from can be obtained by
calling 5 1 1.